createdAt,value
2023-04-13T00:01:34.942Z,10.83
2023-04-13T00:04:38.653Z,9.17
2023-04-13T00:07:43.644Z,9.10
2023-04-13T00:10:46.703Z,8.90
2023-04-13T00:13:53.438Z,11.00
2023-04-13T00:16:56.681Z,9.70
2023-04-13T00:19:59.711Z,12.50
2023-04-13T00:23:03.021Z,9.27
2023-04-13T00:26:06.803Z,10.13
2023-04-13T00:29:11.672Z,8.20
2023-04-13T00:32:17.632Z,10.07
2023-04-13T00:35:25.248Z,9.27
2023-04-13T00:38:29.869Z,10.53
2023-04-13T00:41:33.174Z,10.07
2023-04-13T00:44:37.773Z,9.33
2023-04-13T00:47:46.605Z,10.00
2023-04-13T00:50:49.883Z,9.80
2023-04-13T00:53:53.087Z,12.50
2023-04-13T00:56:57.121Z,9.73
2023-04-13T01:00:06.449Z,9.97
2023-04-13T01:03:10.879Z,9.97
2023-04-13T01:06:21.148Z,14.50
2023-04-13T01:09:33.148Z,13.67
2023-04-13T01:12:48.145Z,17.20
2023-04-13T01:16:03.894Z,56.63
2023-04-13T01:19:18.565Z,56.50
2023-04-13T01:22:25.765Z,36.27
2023-04-13T01:25:40.717Z,22.17
2023-04-13T01:28:47.436Z,15.93
2023-04-13T01:31:53.795Z,15.13
2023-04-13T01:34:57.211Z,14.83
2023-04-13T01:38:00.802Z,13.07
2023-04-13T01:41:07.055Z,14.70
2023-04-13T01:44:13.692Z,13.97
2023-04-13T01:47:21.408Z,15.77
2023-04-13T01:50:35.358Z,13.87
2023-04-13T01:53:54.892Z,19.03
2023-04-13T01:57:00.263Z,14.13
2023-04-13T02:00:12.678Z,15.77
2023-04-13T02:03:22.596Z,13.57
2023-04-13T02:06:25.947Z,15.10
2023-04-13T02:09:29.346Z,13.93
2023-04-13T02:12:33.025Z,13.93
2023-04-13T02:15:39.040Z,14.73
2023-04-13T02:18:42.350Z,19.37
2023-04-13T02:21:47.812Z,13.97
2023-04-13T02:24:52.425Z,14.37
2023-04-13T02:27:55.814Z,14.57
2023-04-13T02:31:03.310Z,13.97
2023-04-13T02:34:06.349Z,15.73
2023-04-13T02:37:11.327Z,15.67
2023-04-13T02:40:18.037Z,15.67
2023-04-13T02:43:22.117Z,14.23
2023-04-13T02:46:26.662Z,14.70
2023-04-13T02:49:41.359Z,16.23
2023-04-13T02:53:03.514Z,14.57
2023-04-13T02:56:09.582Z,14.77
2023-04-13T02:59:14.608Z,12.63
2023-04-13T03:02:21.510Z,17.43
2023-04-13T03:05:25.109Z,17.60
2023-04-13T03:08:28.474Z,13.27
2023-04-13T03:11:42.405Z,18.03
2023-04-13T03:14:49.756Z,15.40
2023-04-13T03:18:00.507Z,12.70
2023-04-13T03:21:06.226Z,15.30
2023-04-13T03:24:15.515Z,13.50
2023-04-13T03:27:20.971Z,14.80
2023-04-13T03:30:25.846Z,12.13
2023-04-13T03:33:34.698Z,15.33
2023-04-13T03:36:39.756Z,10.73
2023-04-13T03:39:43.089Z,17.93
2023-04-13T03:42:50.647Z,14.20
2023-04-13T03:45:57.342Z,14.73
2023-04-13T03:49:02.107Z,9.90
2023-04-13T03:52:05.720Z,10.70
2023-04-13T03:55:14.207Z,11.27
2023-04-13T03:58:22.127Z,15.60
2023-04-13T04:01:29.096Z,11.70
2023-04-13T04:04:36.310Z,10.23
2023-04-13T04:07:39.496Z,10.17
2023-04-13T04:10:43.561Z,9.10
2023-04-13T04:13:52.502Z,9.60
2023-04-13T04:16:55.823Z,11.43
2023-04-13T04:20:01.014Z,9.20
2023-04-13T04:23:05.236Z,10.20
2023-04-13T04:26:17.979Z,8.60
2023-04-13T04:29:37.496Z,9.57
2023-04-13T04:33:04.313Z,8.40
2023-04-13T04:36:16.265Z,14.63
2023-04-13T04:39:32.877Z,8.77
2023-04-13T04:42:45.616Z,11.80
2023-04-13T04:45:59.009Z,17.53
2023-04-13T04:49:03.487Z,11.97
2023-04-13T04:52:12.301Z,9.90
2023-04-13T04:55:16.696Z,15.20
2023-04-13T04:58:22.266Z,11.03
2023-04-13T05:01:29.801Z,11.77
2023-04-13T05:04:42.179Z,13.33
2023-04-13T05:07:47.183Z,15.67
2023-04-13T05:10:51.305Z,13.03
2023-04-13T05:13:56.855Z,14.33
2023-04-13T05:17:02.246Z,14.13
2023-04-13T05:20:13.838Z,13.40
2023-04-13T05:23:32.381Z,15.43
2023-04-13T05:26:43.145Z,12.23
2023-04-13T05:29:49.401Z,12.73
2023-04-13T05:33:06.024Z,12.87
2023-04-13T05:36:10.847Z,11.67
2023-04-13T05:39:17.614Z,12.80
2023-04-13T05:42:21.362Z,19.17
2023-04-13T05:45:24.762Z,12.50
2023-04-13T05:48:39.472Z,13.87
2023-04-13T05:51:44.723Z,14.37
2023-04-13T05:54:49.945Z,17.27
2023-04-13T05:57:57.716Z,17.60
2023-04-13T06:01:01.641Z,14.70
2023-04-13T06:04:09.557Z,13.83
2023-04-13T06:07:21.287Z,15.47
2023-04-13T06:10:26.635Z,14.60
2023-04-13T06:13:29.684Z,13.07
2023-04-13T06:16:32.734Z,12.83
2023-04-13T06:19:37.317Z,11.90
2023-04-13T06:22:41.839Z,15.23
2023-04-13T06:25:46.606Z,13.23
2023-04-13T06:28:53.225Z,15.33
2023-04-13T06:31:57.065Z,14.43
2023-04-13T06:35:03.221Z,15.80
2023-04-13T06:38:11.898Z,13.50
2023-04-13T06:41:29.812Z,12.13
2023-04-13T06:44:48.819Z,12.37
2023-04-13T06:47:53.948Z,15.53
2023-04-13T06:50:59.091Z,12.97
2023-04-13T06:54:03.855Z,11.33
2023-04-13T06:57:08.586Z,14.10
2023-04-13T07:00:28.810Z,11.90
2023-04-13T07:03:34.016Z,10.67
2023-04-13T07:06:38.126Z,10.87
2023-04-13T07:09:43.641Z,10.07
2023-04-13T07:12:48.295Z,7.93
2023-04-13T07:15:52.681Z,9.73
2023-04-13T07:18:55.821Z,10.83
2023-04-13T07:21:59.357Z,7.83
2023-04-13T07:25:03.046Z,8.00
2023-04-13T07:28:08.051Z,8.60
2023-04-13T07:31:12.015Z,7.50
2023-04-13T07:34:17.364Z,8.80
2023-04-13T07:37:22.700Z,8.43
2023-04-13T07:40:26.097Z,8.67
2023-04-13T07:43:35.253Z,12.30
2023-04-13T07:46:43.025Z,8.90
2023-04-13T07:49:46.304Z,10.17
2023-04-13T07:52:53.645Z,7.87
2023-04-13T07:55:59.225Z,8.43
2023-04-13T07:59:06.534Z,6.40
2023-04-13T08:02:12.426Z,6.27
2023-04-13T08:05:18.208Z,8.40
2023-04-13T08:08:21.664Z,5.37
2023-04-13T08:11:27.050Z,9.17
2023-04-13T08:14:39.622Z,7.93
2023-04-13T08:17:42.897Z,5.00
2023-04-13T08:20:46.813Z,5.50
2023-04-13T08:23:51.647Z,8.20
2023-04-13T08:26:58.078Z,7.33
2023-04-13T08:30:03.810Z,5.40
2023-04-13T08:33:17.625Z,6.60
2023-04-13T08:36:20.714Z,4.70
2023-04-13T08:39:29.542Z,4.33
2023-04-13T08:42:33.121Z,4.10
2023-04-13T08:45:37.686Z,5.47
2023-04-13T08:48:53.462Z,7.97
2023-04-13T08:52:00.618Z,6.17
2023-04-13T08:55:05.913Z,4.67
2023-04-13T08:58:14.747Z,4.73
2023-04-13T09:01:20.786Z,4.37
2023-04-13T09:04:33.141Z,10.87
2023-04-13T09:07:38.737Z,5.53
2023-04-13T09:10:48.124Z,6.73
2023-04-13T09:13:51.856Z,4.17
2023-04-13T09:16:59.218Z,4.60
2023-04-13T09:20:22.149Z,4.93
2023-04-13T09:23:25.938Z,7.20
2023-04-13T09:26:29.053Z,4.70
2023-04-13T09:29:34.630Z,7.10
2023-04-13T09:32:38.952Z,4.70
2023-04-13T09:35:45.500Z,6.07
2023-04-13T09:38:53.504Z,4.90
2023-04-13T09:41:56.645Z,5.27
2023-04-13T09:45:00.239Z,6.60
2023-04-13T09:48:05.663Z,3.47
2023-04-13T09:51:09.812Z,3.17
2023-04-13T09:54:12.944Z,4.50
2023-04-13T09:57:25.730Z,3.17
2023-04-13T10:00:30.082Z,3.33
2023-04-13T10:03:36.162Z,3.20
2023-04-13T10:06:40.694Z,3.30
2023-04-13T10:09:44.171Z,3.50
2023-04-13T10:12:50.763Z,4.80
2023-04-13T10:16:36.685Z,2.67
2023-04-13T10:19:44.716Z,4.37
2023-04-13T10:22:48.479Z,3.50
2023-04-13T10:25:53.127Z,2.90
2023-04-13T10:28:57.030Z,4.43
2023-04-13T10:32:03.832Z,3.30
2023-04-13T10:35:12.779Z,5.10
2023-04-13T10:38:16.068Z,4.10
2023-04-13T10:41:25.955Z,3.33
2023-04-13T10:44:29.522Z,3.90
2023-04-13T10:47:38.026Z,2.53
2023-04-13T10:50:42.441Z,13.40
2023-04-13T10:53:45.858Z,3.60
2023-04-13T10:56:58.061Z,3.90
2023-04-13T11:00:01.559Z,2.50
2023-04-13T11:03:06.598Z,2.40
2023-04-13T11:06:11.327Z,2.83
2023-04-13T11:09:17.164Z,4.53
2023-04-13T11:12:20.934Z,4.30
2023-04-13T11:15:25.842Z,3.97
2023-04-13T11:18:29.091Z,2.57
2023-04-13T11:21:35.254Z,3.00
2023-04-13T11:24:38.198Z,2.83
2023-04-13T11:27:41.574Z,4.73
2023-04-13T11:30:53.459Z,3.90
2023-04-13T11:33:57.189Z,5.43
2023-04-13T11:37:05.499Z,5.33
2023-04-13T11:40:12.923Z,4.20
2023-04-13T11:43:17.286Z,3.73
2023-04-13T11:46:25.719Z,3.47
2023-04-13T11:49:29.008Z,3.17
2023-04-13T11:52:33.725Z,3.03
2023-04-13T11:55:50.065Z,3.20
2023-04-13T11:58:57.032Z,3.57
2023-04-13T12:02:08.276Z,4.10
2023-04-13T12:05:24.388Z,5.43
2023-04-13T12:08:30.494Z,2.70
2023-04-13T12:11:42.151Z,3.67
2023-04-13T12:15:12.669Z,2.90
2023-04-13T12:21:23.812Z,2.77
2023-04-13T12:24:39.269Z,3.73
2023-04-13T12:27:42.876Z,3.53
2023-04-13T12:30:47.581Z,4.40
2023-04-13T12:33:53.822Z,3.00
2023-04-13T12:36:57.973Z,3.30
2023-04-13T12:40:02.377Z,3.47
2023-04-13T12:43:05.578Z,2.83
2023-04-13T12:46:08.579Z,3.20
2023-04-13T12:49:11.556Z,2.73
2023-04-13T12:52:15.456Z,3.10
2023-04-13T12:55:19.832Z,4.40
2023-04-13T12:58:22.786Z,2.60
2023-04-13T13:01:26.356Z,3.30
2023-04-13T13:04:30.632Z,2.80
2023-04-13T13:07:33.657Z,3.17
2023-04-13T13:10:38.643Z,2.50
2023-04-13T13:13:43.615Z,2.77
2023-04-13T13:16:47.171Z,3.10
2023-04-13T13:19:54.774Z,3.83
2023-04-13T13:22:58.233Z,3.45
2023-04-13T13:26:22.216Z,2.70
2023-04-13T13:29:27.999Z,2.13
2023-04-13T13:32:31.376Z,2.78
2023-04-13T13:35:35.864Z,3.33
2023-04-13T13:38:39.410Z,2.58
2023-04-13T13:41:43.736Z,4.40
2023-04-13T13:44:46.971Z,2.92
2023-04-13T13:47:54.046Z,3.75
2023-04-13T13:51:06.884Z,5.05
2023-04-13T13:54:11.045Z,3.85
2023-04-13T13:57:15.453Z,4.43
2023-04-13T14:00:19.883Z,2.63
2023-04-13T14:03:23.876Z,5.85
2023-04-13T14:06:31.645Z,2.78
2023-04-13T14:09:39.167Z,2.95
2023-04-13T14:12:49.599Z,3.15
2023-04-13T14:15:53.588Z,3.03
2023-04-13T14:18:56.582Z,2.35
2023-04-13T14:21:59.646Z,3.38
2023-04-13T14:25:04.337Z,3.13
2023-04-13T14:28:09.330Z,4.45
2023-04-13T14:31:14.641Z,3.17
2023-04-13T14:34:19.204Z,4.15
2023-04-13T14:37:23.278Z,4.05
2023-04-13T14:40:28.471Z,2.30
2023-04-13T14:43:32.926Z,3.00
2023-04-13T14:46:36.423Z,3.13
2023-04-13T14:49:39.435Z,2.83
2023-04-13T14:52:47.621Z,2.78
2023-04-13T14:55:50.915Z,2.60
2023-04-13T14:58:55.336Z,3.28
2023-04-13T15:01:58.533Z,2.42
2023-04-13T15:05:02.833Z,7.00
2023-04-13T15:08:07.175Z,2.88
2023-04-13T15:11:10.368Z,2.80
2023-04-13T15:14:14.789Z,3.50
2023-04-13T15:17:17.957Z,2.80
2023-04-13T15:20:21.264Z,3.78
2023-04-13T15:23:27.442Z,2.88
2023-04-13T15:26:31.060Z,2.67
2023-04-13T15:29:35.917Z,3.63
2023-04-13T15:32:40.846Z,2.70
2023-04-13T15:35:43.986Z,3.35
2023-04-13T15:39:32.791Z,2.88
2023-04-13T15:42:36.193Z,2.58
2023-04-13T15:45:43.566Z,4.38
2023-04-13T15:48:52.458Z,2.50
2023-04-13T15:51:55.696Z,3.13
2023-04-13T15:54:58.730Z,2.40
2023-04-13T15:58:03.678Z,2.97
2023-04-13T16:01:10.098Z,2.92
2023-04-13T16:04:13.317Z,2.73
2023-04-13T16:07:16.337Z,2.78
2023-04-13T16:10:19.622Z,3.60
2023-04-13T16:13:22.990Z,3.20
2023-04-13T16:16:27.980Z,4.70
2023-04-13T16:19:32.655Z,3.28
2023-04-13T16:22:37.508Z,3.77
2023-04-13T16:25:40.580Z,2.40
2023-04-13T16:28:44.699Z,3.83
2023-04-13T16:31:49.111Z,2.80
2023-04-13T16:34:53.624Z,4.32
2023-04-13T16:37:59.728Z,3.73
2023-04-13T16:41:03.107Z,5.77
2023-04-13T16:44:08.291Z,4.40
2023-04-13T16:47:12.659Z,3.90
2023-04-13T16:50:16.387Z,2.63
2023-04-13T16:53:19.594Z,3.20
2023-04-13T16:56:25.360Z,4.13
2023-04-13T16:59:28.309Z,2.83
2023-04-13T17:02:32.856Z,3.17
2023-04-13T17:05:35.935Z,2.80
2023-04-13T17:08:38.937Z,5.17
2023-04-13T17:11:42.191Z,4.00
2023-04-13T17:14:46.533Z,2.63
2023-04-13T17:17:51.085Z,3.90
2023-04-13T17:20:55.660Z,5.93
2023-04-13T17:23:58.650Z,3.13
2023-04-13T17:27:01.766Z,4.10
2023-04-13T17:30:07.660Z,3.13
2023-04-13T17:33:12.304Z,4.77
2023-04-13T17:36:15.521Z,3.50
2023-04-13T17:39:20.057Z,5.47
2023-04-13T17:42:23.819Z,3.00
2023-04-13T17:45:27.411Z,3.80
2023-04-13T17:48:31.769Z,3.20
2023-04-13T17:51:35.239Z,3.03
2023-04-13T17:54:40.749Z,3.27
2023-04-13T17:57:44.064Z,4.83
2023-04-13T18:00:47.387Z,5.47
2023-04-13T18:03:52.153Z,4.43
2023-04-13T18:06:56.983Z,4.30
2023-04-13T18:10:00.540Z,4.37
2023-04-13T18:13:04.080Z,4.67
2023-04-13T18:16:10.649Z,6.53
2023-04-13T18:19:16.909Z,3.50
2023-04-13T18:22:21.663Z,5.00
2023-04-13T18:25:26.298Z,3.47
2023-04-13T18:28:31.641Z,4.60
2023-04-13T18:32:00.784Z,7.70
2023-04-13T18:35:12.353Z,10.57
2023-04-13T18:38:15.417Z,6.00
2023-04-13T18:41:18.455Z,8.50
2023-04-13T18:44:21.527Z,5.33
2023-04-13T18:47:25.746Z,7.87
2023-04-13T18:50:30.577Z,5.30
2023-04-13T18:53:33.532Z,6.30
2023-04-13T18:56:36.832Z,5.40
2023-04-13T19:03:34.226Z,4.60
2023-04-13T19:06:38.833Z,3.93
2023-04-13T19:09:42.165Z,6.17
2023-04-13T19:12:47.539Z,8.23
2023-04-13T19:15:50.938Z,9.20
2023-04-13T19:18:54.010Z,11.13
2023-04-13T19:21:58.591Z,19.50
2023-04-13T19:25:01.734Z,19.70
2023-04-13T19:28:06.096Z,17.57
2023-04-13T19:31:09.427Z,19.53
2023-04-13T19:34:13.281Z,17.97
2023-04-13T19:37:17.825Z,16.00
2023-04-13T19:40:23.011Z,14.60
2023-04-13T19:43:28.046Z,18.20
2023-04-13T19:46:32.662Z,15.40
2023-04-13T19:49:35.987Z,8.57
2023-04-13T19:52:42.226Z,12.30
2023-04-13T19:55:45.579Z,10.33
2023-04-13T19:58:48.513Z,8.53
2023-04-13T20:01:53.524Z,7.00
2023-04-13T20:04:57.211Z,7.30
2023-04-13T20:08:01.751Z,9.60
2023-04-13T20:11:04.935Z,9.83
2023-04-13T20:14:08.198Z,12.53
2023-04-13T20:17:11.189Z,12.10
2023-04-13T20:20:17.848Z,9.27
2023-04-13T20:23:22.306Z,9.20
2023-04-13T20:26:28.049Z,13.00
2023-04-13T20:29:31.360Z,18.97
2023-04-13T20:32:34.334Z,10.50
2023-04-13T20:35:37.656Z,13.70
2023-04-13T20:38:42.902Z,14.23
2023-04-13T20:41:55.035Z,15.70
2023-04-13T20:44:58.547Z,12.47
2023-04-13T20:51:26.016Z,13.90
2023-04-13T20:54:30.735Z,12.47
2023-04-13T20:57:33.798Z,13.07
2023-04-13T21:00:36.795Z,13.13
2023-04-13T21:03:40.056Z,18.33
2023-04-13T21:06:44.986Z,15.07
2023-04-13T21:09:49.371Z,13.47
2023-04-13T21:12:55.148Z,18.60
2023-04-13T21:15:58.155Z,16.03
2023-04-13T21:19:01.160Z,17.67
2023-04-13T21:22:06.478Z,12.83
2023-04-13T21:25:13.172Z,15.00
2023-04-13T21:28:21.030Z,14.90
2023-04-13T21:31:24.210Z,13.53
2023-04-13T21:34:27.902Z,13.07
2023-04-13T21:37:30.923Z,15.23
2023-04-13T21:40:36.885Z,11.87
2023-04-13T21:43:42.586Z,15.43
2023-04-13T21:46:45.858Z,17.47
2023-04-13T21:49:48.819Z,14.17
2023-04-13T21:52:51.851Z,17.00
2023-04-13T21:55:56.429Z,17.30
2023-04-13T21:59:02.853Z,19.17
2023-04-13T22:02:06.011Z,14.97
2023-04-13T22:05:09.647Z,17.90
2023-04-13T22:08:13.160Z,16.47
2023-04-13T22:11:17.974Z,21.30
2023-04-13T22:14:24.064Z,19.63
2023-04-13T22:17:27.172Z,18.40
2023-04-13T22:20:30.362Z,16.70
2023-04-13T22:23:33.341Z,18.40
2023-04-13T22:26:37.754Z,21.03
2023-04-13T22:29:42.273Z,15.70
2023-04-13T22:32:45.426Z,17.40
2023-04-13T22:35:50.594Z,19.00
2023-04-13T22:38:54.705Z,17.80
2023-04-13T22:42:00.069Z,16.23
2023-04-13T22:45:03.298Z,20.00
2023-04-13T22:48:09.793Z,18.97
2023-04-13T22:51:12.828Z,16.70
2023-04-13T22:54:15.943Z,19.17
2023-04-13T22:57:20.287Z,19.33
2023-04-13T23:00:23.687Z,17.73
2023-04-13T23:03:27.467Z,17.20
2023-04-13T23:06:30.993Z,21.57
2023-04-13T23:09:34.555Z,21.87
2023-04-13T23:12:38.887Z,21.83
2023-04-13T23:15:41.881Z,18.77
2023-04-13T23:18:44.846Z,22.70
2023-04-13T23:21:47.951Z,17.43
2023-04-13T23:24:51.071Z,19.97
2023-04-13T23:27:55.648Z,19.23
2023-04-13T23:31:04.904Z,14.77
2023-04-13T23:34:08.216Z,22.07
2023-04-13T23:37:11.339Z,23.77
2023-04-13T23:40:14.522Z,23.00
2023-04-13T23:43:19.208Z,21.57
2023-04-13T23:46:25.328Z,20.93
2023-04-13T23:49:28.291Z,18.20
2023-04-13T23:52:31.282Z,20.20
2023-04-13T23:55:34.701Z,19.47
2023-04-13T23:58:39.012Z,21.53
